sensor_id;sensor_type;location;lat;lon;timestamp;P1;durP1;ratioP1;P2;durP2;ratioP2
68168;SDS011;54981;50.206;15.978;2022-12-29T00:00:46;23.73;;;21.52;;
68168;SDS011;54981;50.206;15.978;2022-12-29T00:03:46;28.70;;;26.02;;
68168;SDS011;54981;50.206;15.978;2022-12-29T00:06:47;25.63;;;23.33;;
68168;SDS011;54981;50.206;15.978;2022-12-29T00:09:48;26.83;;;24.65;;
68168;SDS011;54981;50.206;15.978;2022-12-29T00:12:48;24.83;;;22.52;;
68168;SDS011;54981;50.206;15.978;2022-12-29T00:16:07;25.08;;;22.45;;
68168;SDS011;54981;50.206;15.978;2022-12-29T00:19:07;26.33;;;24.17;;
68168;SDS011;54981;50.206;15.978;2022-12-29T00:22:28;26.27;;;23.88;;
68168;SDS011;54981;50.206;15.978;2022-12-29T00:25:47;25.08;;;22.60;;
68168;SDS011;54981;50.206;15.978;2022-12-29T00:29:06;25.30;;;23.10;;
68168;SDS011;54981;50.206;15.978;2022-12-29T00:32:27;26.40;;;24.02;;
68168;SDS011;54981;50.206;15.978;2022-12-29T00:35:46;27.67;;;24.98;;
68168;SDS011;54981;50.206;15.978;2022-12-29T00:38:57;28.52;;;25.95;;
68168;SDS011;54981;50.206;15.978;2022-12-29T00:42:29;28.73;;;26.27;;
68168;SDS011;54981;50.206;15.978;2022-12-29T00:45:48;25.00;;;22.55;;
68168;SDS011;54981;50.206;15.978;2022-12-29T00:48:48;23.77;;;21.50;;
68168;SDS011;54981;50.206;15.978;2022-12-29T00:52:08;25.85;;;23.55;;
68168;SDS011;54981;50.206;15.978;2022-12-29T00:55:10;27.05;;;24.83;;
68168;SDS011;54981;50.206;15.978;2022-12-29T00:58:11;25.70;;;23.33;;
68168;SDS011;54981;50.206;15.978;2022-12-29T01:01:11;25.40;;;23.10;;
68168;SDS011;54981;50.206;15.978;2022-12-29T01:04:12;25.92;;;23.65;;
68168;SDS011;54981;50.206;15.978;2022-12-29T01:07:13;25.45;;;23.25;;
68168;SDS011;54981;50.206;15.978;2022-12-29T01:10:13;28.33;;;25.95;;
68168;SDS011;54981;50.206;15.978;2022-12-29T01:13:15;24.92;;;22.73;;
68168;SDS011;54981;50.206;15.978;2022-12-29T01:16:15;25.30;;;22.92;;
68168;SDS011;54981;50.206;15.978;2022-12-29T01:19:16;26.65;;;24.17;;
68168;SDS011;54981;50.206;15.978;2022-12-29T01:22:16;24.42;;;22.13;;
68168;SDS011;54981;50.206;15.978;2022-12-29T01:25:17;25.38;;;23.13;;
68168;SDS011;54981;50.206;15.978;2022-12-29T01:28:17;25.95;;;23.60;;
68168;SDS011;54981;50.206;15.978;2022-12-29T01:31:17;24.98;;;22.77;;
68168;SDS011;54981;50.206;15.978;2022-12-29T01:34:18;25.90;;;23.73;;
68168;SDS011;54981;50.206;15.978;2022-12-29T01:37:18;27.70;;;25.30;;
68168;SDS011;54981;50.206;15.978;2022-12-29T01:40:18;24.65;;;22.38;;
68168;SDS011;54981;50.206;15.978;2022-12-29T01:43:19;26.17;;;24.00;;
68168;SDS011;54981;50.206;15.978;2022-12-29T01:46:21;27.15;;;24.85;;
68168;SDS011;54981;50.206;15.978;2022-12-29T01:49:28;28.02;;;25.45;;
68168;SDS011;54981;50.206;15.978;2022-12-29T01:52:29;26.42;;;23.92;;
68168;SDS011;54981;50.206;15.978;2022-12-29T01:55:35;25.23;;;23.17;;
68168;SDS011;54981;50.206;15.978;2022-12-29T01:58:39;24.27;;;22.15;;
68168;SDS011;54981;50.206;15.978;2022-12-29T02:01:44;25.33;;;23.13;;
68168;SDS011;54981;50.206;15.978;2022-12-29T02:04:44;26.15;;;23.88;;
68168;SDS011;54981;50.206;15.978;2022-12-29T02:07:45;24.08;;;21.95;;
68168;SDS011;54981;50.206;15.978;2022-12-29T02:10:47;25.02;;;22.55;;
68168;SDS011;54981;50.206;15.978;2022-12-29T02:13:48;24.17;;;22.17;;
68168;SDS011;54981;50.206;15.978;2022-12-29T02:36:11;23.75;;;21.85;;
68168;SDS011;54981;50.206;15.978;2022-12-29T02:46:21;23.00;;;21.13;;
68168;SDS011;54981;50.206;15.978;2022-12-29T02:49:33;23.67;;;21.77;;
68168;SDS011;54981;50.206;15.978;2022-12-29T02:52:40;23.15;;;21.20;;
68168;SDS011;54981;50.206;15.978;2022-12-29T02:55:49;22.92;;;21.02;;
68168;SDS011;54981;50.206;15.978;2022-12-29T02:58:50;23.42;;;21.40;;
68168;SDS011;54981;50.206;15.978;2022-12-29T03:08:44;24.73;;;22.73;;
68168;SDS011;54981;50.206;15.978;2022-12-29T03:11:58;24.08;;;21.85;;
68168;SDS011;54981;50.206;15.978;2022-12-29T03:15:13;26.05;;;23.77;;
68168;SDS011;54981;50.206;15.978;2022-12-29T03:18:45;22.85;;;20.65;;
68168;SDS011;54981;50.206;15.978;2022-12-29T03:21:54;27.40;;;24.70;;
68168;SDS011;54981;50.206;15.978;2022-12-29T03:25:32;24.55;;;22.55;;
68168;SDS011;54981;50.206;15.978;2022-12-29T03:28:39;24.92;;;22.80;;
68168;SDS011;54981;50.206;15.978;2022-12-29T03:31:53;22.88;;;20.90;;
68168;SDS011;54981;50.206;15.978;2022-12-29T03:34:55;22.58;;;20.70;;
68168;SDS011;54981;50.206;15.978;2022-12-29T03:37:59;25.40;;;23.35;;
68168;SDS011;54981;50.206;15.978;2022-12-29T03:41:09;22.88;;;20.98;;
68168;SDS011;54981;50.206;15.978;2022-12-29T03:44:13;23.63;;;21.60;;
68168;SDS011;54981;50.206;15.978;2022-12-29T03:47:14;22.38;;;20.25;;
68168;SDS011;54981;50.206;15.978;2022-12-29T03:50:15;23.70;;;21.73;;
68168;SDS011;54981;50.206;15.978;2022-12-29T03:53:15;24.63;;;22.63;;
68168;SDS011;54981;50.206;15.978;2022-12-29T03:56:16;23.48;;;21.50;;
68168;SDS011;54981;50.206;15.978;2022-12-29T03:59:16;22.48;;;19.98;;
68168;SDS011;54981;50.206;15.978;2022-12-29T04:02:17;23.38;;;21.45;;
68168;SDS011;54981;50.206;15.978;2022-12-29T04:05:17;24.13;;;22.17;;
68168;SDS011;54981;50.206;15.978;2022-12-29T04:08:17;23.27;;;21.23;;
68168;SDS011;54981;50.206;15.978;2022-12-29T04:11:18;25.73;;;23.50;;
68168;SDS011;54981;50.206;15.978;2022-12-29T04:14:18;26.38;;;24.05;;
68168;SDS011;54981;50.206;15.978;2022-12-29T04:17:18;24.67;;;22.67;;
68168;SDS011;54981;50.206;15.978;2022-12-29T04:20:19;23.73;;;21.73;;
68168;SDS011;54981;50.206;15.978;2022-12-29T04:23:38;23.40;;;21.50;;
68168;SDS011;54981;50.206;15.978;2022-12-29T04:26:39;22.95;;;20.98;;
68168;SDS011;54981;50.206;15.978;2022-12-29T04:29:39;24.98;;;22.98;;
68168;SDS011;54981;50.206;15.978;2022-12-29T04:32:39;26.08;;;23.58;;
68168;SDS011;54981;50.206;15.978;2022-12-29T04:35:40;25.15;;;23.10;;
68168;SDS011;54981;50.206;15.978;2022-12-29T04:38:42;24.27;;;22.27;;
68168;SDS011;54981;50.206;15.978;2022-12-29T04:41:42;25.10;;;23.05;;
68168;SDS011;54981;50.206;15.978;2022-12-29T04:44:43;23.05;;;21.05;;
68168;SDS011;54981;50.206;15.978;2022-12-29T04:47:43;26.77;;;24.42;;
68168;SDS011;54981;50.206;15.978;2022-12-29T04:50:46;24.52;;;22.55;;
68168;SDS011;54981;50.206;15.978;2022-12-29T04:53:48;25.03;;;22.87;;
68168;SDS011;54981;50.206;15.978;2022-12-29T04:56:48;24.73;;;22.73;;
68168;SDS011;54981;50.206;15.978;2022-12-29T04:59:48;25.75;;;23.75;;
68168;SDS011;54981;50.206;15.978;2022-12-29T05:02:49;25.40;;;23.35;;
68168;SDS011;54981;50.206;15.978;2022-12-29T05:05:52;25.02;;;22.92;;
68168;SDS011;54981;50.206;15.978;2022-12-29T05:08:54;25.48;;;23.08;;
68168;SDS011;54981;50.206;15.978;2022-12-29T05:11:55;25.30;;;22.92;;
68168;SDS011;54981;50.206;15.978;2022-12-29T05:14:55;24.95;;;22.95;;
68168;SDS011;54981;50.206;15.978;2022-12-29T05:17:56;24.25;;;22.25;;
68168;SDS011;54981;50.206;15.978;2022-12-29T05:20:56;27.88;;;25.10;;
68168;SDS011;54981;50.206;15.978;2022-12-29T05:23:56;25.70;;;23.52;;
68168;SDS011;54981;50.206;15.978;2022-12-29T05:26:57;24.88;;;22.95;;
68168;SDS011;54981;50.206;15.978;2022-12-29T05:29:57;24.35;;;22.27;;
68168;SDS011;54981;50.206;15.978;2022-12-29T05:32:57;24.02;;;22.05;;
68168;SDS011;54981;50.206;15.978;2022-12-29T05:36:03;24.30;;;22.10;;
68168;SDS011;54981;50.206;15.978;2022-12-29T05:39:04;24.23;;;22.05;;
68168;SDS011;54981;50.206;15.978;2022-12-29T05:42:07;24.80;;;22.58;;
68168;SDS011;54981;50.206;15.978;2022-12-29T05:45:07;23.38;;;21.05;;
68168;SDS011;54981;50.206;15.978;2022-12-29T05:48:08;25.38;;;23.20;;
68168;SDS011;54981;50.206;15.978;2022-12-29T05:51:08;24.58;;;22.63;;
68168;SDS011;54981;50.206;15.978;2022-12-29T05:54:09;26.02;;;23.73;;
68168;SDS011;54981;50.206;15.978;2022-12-29T05:57:09;24.30;;;22.40;;
68168;SDS011;54981;50.206;15.978;2022-12-29T06:00:10;24.67;;;22.58;;
68168;SDS011;54981;50.206;15.978;2022-12-29T06:03:11;25.83;;;23.52;;
68168;SDS011;54981;50.206;15.978;2022-12-29T06:06:12;24.30;;;22.27;;
68168;SDS011;54981;50.206;15.978;2022-12-29T06:09:12;24.05;;;21.88;;
68168;SDS011;54981;50.206;15.978;2022-12-29T06:12:12;24.30;;;22.40;;
68168;SDS011;54981;50.206;15.978;2022-12-29T06:15:13;25.10;;;22.98;;
68168;SDS011;54981;50.206;15.978;2022-12-29T06:18:13;25.08;;;22.88;;
68168;SDS011;54981;50.206;15.978;2022-12-29T06:21:14;24.70;;;22.63;;
68168;SDS011;54981;50.206;15.978;2022-12-29T06:24:14;24.58;;;22.42;;
68168;SDS011;54981;50.206;15.978;2022-12-29T06:27:14;26.42;;;23.95;;
68168;SDS011;54981;50.206;15.978;2022-12-29T06:30:15;27.08;;;24.75;;
68168;SDS011;54981;50.206;15.978;2022-12-29T06:33:16;28.35;;;25.85;;
68168;SDS011;54981;50.206;15.978;2022-12-29T06:36:17;27.58;;;25.25;;
68168;SDS011;54981;50.206;15.978;2022-12-29T06:39:17;25.67;;;23.58;;
68168;SDS011;54981;50.206;15.978;2022-12-29T06:42:18;26.35;;;24.25;;
68168;SDS011;54981;50.206;15.978;2022-12-29T06:45:18;25.23;;;23.08;;
68168;SDS011;54981;50.206;15.978;2022-12-29T06:48:19;25.80;;;23.77;;
68168;SDS011;54981;50.206;15.978;2022-12-29T06:51:19;26.80;;;24.60;;
68168;SDS011;54981;50.206;15.978;2022-12-29T06:54:19;24.73;;;22.42;;
68168;SDS011;54981;50.206;15.978;2022-12-29T06:57:20;25.92;;;23.73;;
68168;SDS011;54981;50.206;15.978;2022-12-29T07:00:21;29.23;;;26.48;;
68168;SDS011;54981;50.206;15.978;2022-12-29T07:03:21;31.95;;;28.98;;
68168;SDS011;54981;50.206;15.978;2022-12-29T07:06:22;24.88;;;22.88;;
68168;SDS011;54981;50.206;15.978;2022-12-29T07:09:22;25.88;;;23.73;;
68168;SDS011;54981;50.206;15.978;2022-12-29T07:12:23;25.83;;;23.60;;
68168;SDS011;54981;50.206;15.978;2022-12-29T07:15:23;24.88;;;22.70;;
68168;SDS011;54981;50.206;15.978;2022-12-29T07:18:23;23.70;;;21.73;;
68168;SDS011;54981;50.206;15.978;2022-12-29T07:21:24;24.70;;;22.42;;
68168;SDS011;54981;50.206;15.978;2022-12-29T07:24:24;23.52;;;21.30;;
68168;SDS011;54981;50.206;15.978;2022-12-29T07:27:29;24.30;;;22.10;;
68168;SDS011;54981;50.206;15.978;2022-12-29T07:30:30;26.20;;;23.90;;
68168;SDS011;54981;50.206;15.978;2022-12-29T07:33:30;27.50;;;25.30;;
68168;SDS011;54981;50.206;15.978;2022-12-29T07:36:31;25.85;;;23.58;;
68168;SDS011;54981;50.206;15.978;2022-12-29T07:39:32;27.45;;;25.25;;
68168;SDS011;54981;50.206;15.978;2022-12-29T07:42:32;26.88;;;24.67;;
68168;SDS011;54981;50.206;15.978;2022-12-29T07:45:32;25.00;;;22.67;;
68168;SDS011;54981;50.206;15.978;2022-12-29T07:48:33;25.60;;;23.10;;
68168;SDS011;54981;50.206;15.978;2022-12-29T07:51:35;25.70;;;23.42;;
68168;SDS011;54981;50.206;15.978;2022-12-29T07:54:36;27.38;;;24.98;;
68168;SDS011;54981;50.206;15.978;2022-12-29T07:57:36;26.02;;;23.83;;
68168;SDS011;54981;50.206;15.978;2022-12-29T08:00:37;25.30;;;23.00;;
68168;SDS011;54981;50.206;15.978;2022-12-29T08:03:38;27.17;;;24.88;;
68168;SDS011;54981;50.206;15.978;2022-12-29T08:06:41;27.63;;;25.23;;
68168;SDS011;54981;50.206;15.978;2022-12-29T08:09:41;25.08;;;22.65;;
68168;SDS011;54981;50.206;15.978;2022-12-29T08:12:42;31.05;;;27.90;;
68168;SDS011;54981;50.206;15.978;2022-12-29T08:15:42;30.33;;;27.27;;
68168;SDS011;54981;50.206;15.978;2022-12-29T08:18:43;29.05;;;26.52;;
68168;SDS011;54981;50.206;15.978;2022-12-29T08:21:44;29.08;;;26.30;;
68168;SDS011;54981;50.206;15.978;2022-12-29T08:24:44;27.45;;;25.13;;
68168;SDS011;54981;50.206;15.978;2022-12-29T08:27:45;26.73;;;24.48;;
68168;SDS011;54981;50.206;15.978;2022-12-29T08:30:45;28.23;;;25.77;;
68168;SDS011;54981;50.206;15.978;2022-12-29T08:33:45;27.80;;;25.30;;
68168;SDS011;54981;50.206;15.978;2022-12-29T08:36:46;27.40;;;24.90;;
68168;SDS011;54981;50.206;15.978;2022-12-29T08:39:46;26.50;;;24.20;;
68168;SDS011;54981;50.206;15.978;2022-12-29T08:42:46;23.55;;;21.35;;
68168;SDS011;54981;50.206;15.978;2022-12-29T08:45:47;27.38;;;24.83;;
68168;SDS011;54981;50.206;15.978;2022-12-29T08:48:47;29.15;;;26.55;;
68168;SDS011;54981;50.206;15.978;2022-12-29T08:51:47;26.23;;;23.92;;
68168;SDS011;54981;50.206;15.978;2022-12-29T08:54:48;27.45;;;24.92;;
68168;SDS011;54981;50.206;15.978;2022-12-29T08:57:48;26.80;;;24.58;;
68168;SDS011;54981;50.206;15.978;2022-12-29T09:00:48;24.48;;;22.33;;
68168;SDS011;54981;50.206;15.978;2022-12-29T09:03:49;27.90;;;25.02;;
68168;SDS011;54981;50.206;15.978;2022-12-29T09:06:49;27.80;;;25.20;;
68168;SDS011;54981;50.206;15.978;2022-12-29T09:09:50;27.30;;;24.88;;
68168;SDS011;54981;50.206;15.978;2022-12-29T09:12:50;25.17;;;22.98;;
68168;SDS011;54981;50.206;15.978;2022-12-29T09:15:57;25.83;;;23.55;;
68168;SDS011;54981;50.206;15.978;2022-12-29T09:18:58;27.52;;;25.02;;
68168;SDS011;54981;50.206;15.978;2022-12-29T09:21:58;27.60;;;25.27;;
68168;SDS011;54981;50.206;15.978;2022-12-29T09:24:58;26.92;;;24.63;;
68168;SDS011;54981;50.206;15.978;2022-12-29T09:27:59;26.92;;;24.58;;
68168;SDS011;54981;50.206;15.978;2022-12-29T09:30:59;26.05;;;23.67;;
68168;SDS011;54981;50.206;15.978;2022-12-29T09:34:00;28.35;;;25.77;;
68168;SDS011;54981;50.206;15.978;2022-12-29T09:37:00;28.73;;;26.15;;
68168;SDS011;54981;50.206;15.978;2022-12-29T09:40:01;27.35;;;24.98;;
68168;SDS011;54981;50.206;15.978;2022-12-29T09:52:52;26.88;;;24.50;;
68168;SDS011;54981;50.206;15.978;2022-12-29T09:55:59;26.65;;;24.25;;
68168;SDS011;54981;50.206;15.978;2022-12-29T09:59:10;27.27;;;24.88;;
68168;SDS011;54981;50.206;15.978;2022-12-29T10:02:21;26.13;;;23.85;;
68168;SDS011;54981;50.206;15.978;2022-12-29T10:05:39;27.67;;;25.10;;
68168;SDS011;54981;50.206;15.978;2022-12-29T10:11:58;24.42;;;22.23;;
68168;SDS011;54981;50.206;15.978;2022-12-29T10:15:29;26.15;;;23.75;;
68168;SDS011;54981;50.206;15.978;2022-12-29T10:22:13;27.77;;;25.27;;
68168;SDS011;54981;50.206;15.978;2022-12-29T10:25:39;25.77;;;23.40;;
68168;SDS011;54981;50.206;15.978;2022-12-29T10:28:49;26.75;;;24.35;;
68168;SDS011;54981;50.206;15.978;2022-12-29T10:38:22;27.52;;;24.90;;
68168;SDS011;54981;50.206;15.978;2022-12-29T10:44:55;26.50;;;23.95;;
68168;SDS011;54981;50.206;15.978;2022-12-29T10:48:00;28.73;;;26.02;;
68168;SDS011;54981;50.206;15.978;2022-12-29T10:51:16;24.63;;;22.45;;
68168;SDS011;54981;50.206;15.978;2022-12-29T10:57:44;28.13;;;25.60;;
68168;SDS011;54981;50.206;15.978;2022-12-29T11:00:49;27.00;;;24.58;;
68168;SDS011;54981;50.206;15.978;2022-12-29T11:03:55;25.40;;;23.10;;
68168;SDS011;54981;50.206;15.978;2022-12-29T11:07:22;25.77;;;23.50;;
68168;SDS011;54981;50.206;15.978;2022-12-29T11:13:49;27.80;;;25.40;;
68168;SDS011;54981;50.206;15.978;2022-12-29T11:17:01;25.63;;;23.33;;
68168;SDS011;54981;50.206;15.978;2022-12-29T11:20:19;27.75;;;25.25;;
68168;SDS011;54981;50.206;15.978;2022-12-29T11:23:38;28.67;;;26.27;;
68168;SDS011;54981;50.206;15.978;2022-12-29T11:26:40;28.77;;;26.13;;
68168;SDS011;54981;50.206;15.978;2022-12-29T11:29:44;26.88;;;24.42;;
68168;SDS011;54981;50.206;15.978;2022-12-29T11:32:50;27.60;;;25.13;;
68168;SDS011;54981;50.206;15.978;2022-12-29T11:35:56;27.45;;;25.00;;
68168;SDS011;54981;50.206;15.978;2022-12-29T11:39:04;27.20;;;24.67;;
68168;SDS011;54981;50.206;15.978;2022-12-29T11:42:05;27.80;;;25.08;;
68168;SDS011;54981;50.206;15.978;2022-12-29T11:45:18;24.63;;;22.05;;
68168;SDS011;54981;50.206;15.978;2022-12-29T11:48:21;27.23;;;24.38;;
68168;SDS011;54981;50.206;15.978;2022-12-29T11:51:23;25.60;;;23.10;;
68168;SDS011;54981;50.206;15.978;2022-12-29T11:54:27;26.60;;;24.08;;
68168;SDS011;54981;50.206;15.978;2022-12-29T11:57:32;26.53;;;23.83;;
68168;SDS011;54981;50.206;15.978;2022-12-29T12:00:35;28.73;;;26.02;;
68168;SDS011;54981;50.206;15.978;2022-12-29T12:06:59;31.45;;;28.25;;
68168;SDS011;54981;50.206;15.978;2022-12-29T12:10:04;28.80;;;25.98;;
68168;SDS011;54981;50.206;15.978;2022-12-29T12:16:34;28.27;;;25.35;;
68168;SDS011;54981;50.206;15.978;2022-12-29T12:26:21;27.10;;;24.48;;
68168;SDS011;54981;50.206;15.978;2022-12-29T12:30:04;29.52;;;26.42;;
68168;SDS011;54981;50.206;15.978;2022-12-29T12:39:39;25.73;;;23.23;;
68168;SDS011;54981;50.206;15.978;2022-12-29T12:43:08;28.08;;;25.17;;
68168;SDS011;54981;50.206;15.978;2022-12-29T12:46:30;29.60;;;26.55;;
68168;SDS011;54981;50.206;15.978;2022-12-29T12:50:02;29.07;;;26.17;;
68168;SDS011;54981;50.206;15.978;2022-12-29T13:00:01;27.75;;;24.85;;
68168;SDS011;54981;50.206;15.978;2022-12-29T13:03:17;28.40;;;25.58;;
68168;SDS011;54981;50.206;15.978;2022-12-29T13:19:27;31.45;;;28.35;;
68168;SDS011;54981;50.206;15.978;2022-12-29T13:38:48;30.33;;;27.13;;
68168;SDS011;54981;50.206;15.978;2022-12-29T13:41:55;31.20;;;28.00;;
68168;SDS011;54981;50.206;15.978;2022-12-29T13:45:00;30.27;;;27.38;;
68168;SDS011;54981;50.206;15.978;2022-12-29T13:48:21;31.70;;;28.45;;
68168;SDS011;54981;50.206;15.978;2022-12-29T13:51:27;28.70;;;25.60;;
68168;SDS011;54981;50.206;15.978;2022-12-29T13:57:39;31.13;;;28.02;;
68168;SDS011;54981;50.206;15.978;2022-12-29T14:00:48;29.38;;;26.58;;
68168;SDS011;54981;50.206;15.978;2022-12-29T14:03:57;27.27;;;24.38;;
68168;SDS011;54981;50.206;15.978;2022-12-29T14:07:04;30.13;;;27.08;;
68168;SDS011;54981;50.206;15.978;2022-12-29T14:10:54;30.55;;;27.42;;
68168;SDS011;54981;50.206;15.978;2022-12-29T14:13:46;30.15;;;27.30;;
68168;SDS011;54981;50.206;15.978;2022-12-29T14:16:48;31.35;;;28.15;;
68168;SDS011;54981;50.206;15.978;2022-12-29T14:19:51;30.95;;;27.65;;
68168;SDS011;54981;50.206;15.978;2022-12-29T14:35:40;30.05;;;27.05;;
68168;SDS011;54981;50.206;15.978;2022-12-29T14:38:45;29.85;;;26.75;;
68168;SDS011;54981;50.206;15.978;2022-12-29T14:41:47;30.80;;;27.45;;
68168;SDS011;54981;50.206;15.978;2022-12-29T14:45:05;30.20;;;27.08;;
68168;SDS011;54981;50.206;15.978;2022-12-29T14:48:30;31.45;;;28.25;;
68168;SDS011;54981;50.206;15.978;2022-12-29T14:51:34;33.38;;;29.65;;
68168;SDS011;54981;50.206;15.978;2022-12-29T14:57:37;29.52;;;26.33;;
68168;SDS011;54981;50.206;15.978;2022-12-29T15:00:40;29.90;;;26.70;;
68168;SDS011;54981;50.206;15.978;2022-12-29T15:03:46;31.15;;;27.98;;
68168;SDS011;54981;50.206;15.978;2022-12-29T15:06:52;30.02;;;26.88;;
68168;SDS011;54981;50.206;15.978;2022-12-29T15:10:15;33.13;;;29.02;;
68168;SDS011;54981;50.206;15.978;2022-12-29T15:13:17;33.03;;;29.38;;
68168;SDS011;54981;50.206;15.978;2022-12-29T15:16:25;30.98;;;27.52;;
68168;SDS011;54981;50.206;15.978;2022-12-29T15:19:26;32.70;;;29.15;;
68168;SDS011;54981;50.206;15.978;2022-12-29T15:22:27;31.75;;;28.42;;
68168;SDS011;54981;50.206;15.978;2022-12-29T15:25:28;35.15;;;31.40;;
68168;SDS011;54981;50.206;15.978;2022-12-29T15:28:36;34.45;;;30.85;;
68168;SDS011;54981;50.206;15.978;2022-12-29T15:31:48;35.70;;;32.17;;
68168;SDS011;54981;50.206;15.978;2022-12-29T15:34:49;33.42;;;29.92;;
68168;SDS011;54981;50.206;15.978;2022-12-29T15:37:51;32.88;;;29.45;;
68168;SDS011;54981;50.206;15.978;2022-12-29T15:40:55;32.83;;;29.50;;
68168;SDS011;54981;50.206;15.978;2022-12-29T15:44:09;33.90;;;30.65;;
68168;SDS011;54981;50.206;15.978;2022-12-29T15:47:21;35.95;;;32.38;;
68168;SDS011;54981;50.206;15.978;2022-12-29T15:56:32;36.75;;;33.05;;
68168;SDS011;54981;50.206;15.978;2022-12-29T15:59:33;40.67;;;36.28;;
68168;SDS011;54981;50.206;15.978;2022-12-29T16:02:33;34.83;;;31.30;;
68168;SDS011;54981;50.206;15.978;2022-12-29T16:05:35;38.38;;;34.47;;
68168;SDS011;54981;50.206;15.978;2022-12-29T16:08:38;36.45;;;32.75;;
68168;SDS011;54981;50.206;15.978;2022-12-29T16:11:43;35.63;;;31.92;;
68168;SDS011;54981;50.206;15.978;2022-12-29T16:14:57;36.00;;;31.75;;
68168;SDS011;54981;50.206;15.978;2022-12-29T16:18:03;38.35;;;33.42;;
68168;SDS011;54981;50.206;15.978;2022-12-29T16:21:04;36.40;;;32.88;;
68168;SDS011;54981;50.206;15.978;2022-12-29T16:24:13;40.15;;;36.20;;
68168;SDS011;54981;50.206;15.978;2022-12-29T16:27:31;38.65;;;34.50;;
68168;SDS011;54981;50.206;15.978;2022-12-29T16:30:35;39.22;;;35.17;;
68168;SDS011;54981;50.206;15.978;2022-12-29T16:36:52;36.50;;;32.35;;
68168;SDS011;54981;50.206;15.978;2022-12-29T16:40:18;35.10;;;31.48;;
68168;SDS011;54981;50.206;15.978;2022-12-29T16:43:21;37.95;;;34.28;;
68168;SDS011;54981;50.206;15.978;2022-12-29T16:46:30;44.92;;;39.17;;
68168;SDS011;54981;50.206;15.978;2022-12-29T16:49:34;43.45;;;38.83;;
68168;SDS011;54981;50.206;15.978;2022-12-29T16:52:35;40.55;;;36.38;;
68168;SDS011;54981;50.206;15.978;2022-12-29T16:55:36;38.38;;;34.05;;
68168;SDS011;54981;50.206;15.978;2022-12-29T16:58:37;36.22;;;31.98;;
68168;SDS011;54981;50.206;15.978;2022-12-29T17:01:38;37.63;;;33.88;;
68168;SDS011;54981;50.206;15.978;2022-12-29T17:04:39;38.10;;;34.28;;
68168;SDS011;54981;50.206;15.978;2022-12-29T17:07:39;39.75;;;35.85;;
68168;SDS011;54981;50.206;15.978;2022-12-29T17:10:40;82.50;;;61.42;;
68168;SDS011;54981;50.206;15.978;2022-12-29T17:13:59;37.22;;;33.42;;
68168;SDS011;54981;50.206;15.978;2022-12-29T17:16:59;43.05;;;38.67;;
68168;SDS011;54981;50.206;15.978;2022-12-29T17:23:23;48.47;;;43.20;;
68168;SDS011;54981;50.206;15.978;2022-12-29T17:26:23;42.00;;;37.97;;
68168;SDS011;54981;50.206;15.978;2022-12-29T17:29:37;40.53;;;36.60;;
68168;SDS011;54981;50.206;15.978;2022-12-29T17:32:40;40.10;;;36.10;;
68168;SDS011;54981;50.206;15.978;2022-12-29T17:35:43;66.78;;;57.67;;
68168;SDS011;54981;50.206;15.978;2022-12-29T17:38:44;88.55;;;78.78;;
68168;SDS011;54981;50.206;15.978;2022-12-29T17:41:45;44.15;;;39.70;;
68168;SDS011;54981;50.206;15.978;2022-12-29T17:44:46;41.05;;;36.95;;
68168;SDS011;54981;50.206;15.978;2022-12-29T17:47:46;58.35;;;50.22;;
68168;SDS011;54981;50.206;15.978;2022-12-29T17:50:48;60.50;;;53.80;;
68168;SDS011;54981;50.206;15.978;2022-12-29T17:53:50;42.08;;;37.88;;
68168;SDS011;54981;50.206;15.978;2022-12-29T17:56:51;68.10;;;61.05;;
68168;SDS011;54981;50.206;15.978;2022-12-29T17:59:51;40.50;;;36.53;;
68168;SDS011;54981;50.206;15.978;2022-12-29T18:02:52;65.38;;;56.80;;
68168;SDS011;54981;50.206;15.978;2022-12-29T18:05:53;50.10;;;44.75;;
68168;SDS011;54981;50.206;15.978;2022-12-29T18:08:54;43.70;;;39.25;;
68168;SDS011;54981;50.206;15.978;2022-12-29T18:11:55;43.22;;;38.90;;
68168;SDS011;54981;50.206;15.978;2022-12-29T18:14:55;42.00;;;37.70;;
68168;SDS011;54981;50.206;15.978;2022-12-29T18:18:09;39.22;;;35.17;;
68168;SDS011;54981;50.206;15.978;2022-12-29T18:21:15;40.97;;;36.92;;
68168;SDS011;54981;50.206;15.978;2022-12-29T18:24:17;38.25;;;34.15;;
68168;SDS011;54981;50.206;15.978;2022-12-29T18:27:17;41.15;;;37.03;;
68168;SDS011;54981;50.206;15.978;2022-12-29T18:30:18;40.97;;;36.95;;
68168;SDS011;54981;50.206;15.978;2022-12-29T18:33:19;41.97;;;37.92;;
68168;SDS011;54981;50.206;15.978;2022-12-29T18:36:20;45.22;;;40.42;;
68168;SDS011;54981;50.206;15.978;2022-12-29T18:39:21;45.20;;;40.50;;
68168;SDS011;54981;50.206;15.978;2022-12-29T18:42:21;48.00;;;42.92;;
68168;SDS011;54981;50.206;15.978;2022-12-29T18:45:22;50.55;;;45.08;;
68168;SDS011;54981;50.206;15.978;2022-12-29T18:48:23;51.75;;;44.65;;
68168;SDS011;54981;50.206;15.978;2022-12-29T18:51:24;50.03;;;44.63;;
68168;SDS011;54981;50.206;15.978;2022-12-29T18:54:26;50.75;;;44.55;;
68168;SDS011;54981;50.206;15.978;2022-12-29T18:57:28;49.65;;;41.80;;
68168;SDS011;54981;50.206;15.978;2022-12-29T19:00:30;51.58;;;46.17;;
68168;SDS011;54981;50.206;15.978;2022-12-29T19:03:30;56.45;;;49.08;;
68168;SDS011;54981;50.206;15.978;2022-12-29T19:06:31;48.60;;;43.60;;
68168;SDS011;54981;50.206;15.978;2022-12-29T19:09:31;46.00;;;41.15;;
68168;SDS011;54981;50.206;15.978;2022-12-29T19:12:32;56.10;;;48.78;;
68168;SDS011;54981;50.206;15.978;2022-12-29T19:15:33;48.97;;;43.80;;
68168;SDS011;54981;50.206;15.978;2022-12-29T19:18:36;41.72;;;36.42;;
68168;SDS011;54981;50.206;15.978;2022-12-29T19:21:37;46.40;;;41.70;;
68168;SDS011;54981;50.206;15.978;2022-12-29T19:24:37;47.13;;;42.53;;
68168;SDS011;54981;50.206;15.978;2022-12-29T19:27:38;45.80;;;41.22;;
68168;SDS011;54981;50.206;15.978;2022-12-29T19:30:38;46.63;;;41.92;;
68168;SDS011;54981;50.206;15.978;2022-12-29T19:33:38;47.00;;;42.40;;
68168;SDS011;54981;50.206;15.978;2022-12-29T19:36:39;48.17;;;43.60;;
68168;SDS011;54981;50.206;15.978;2022-12-29T19:39:40;45.70;;;41.17;;
68168;SDS011;54981;50.206;15.978;2022-12-29T19:42:40;45.78;;;40.30;;
68168;SDS011;54981;50.206;15.978;2022-12-29T19:45:41;45.90;;;41.20;;
68168;SDS011;54981;50.206;15.978;2022-12-29T19:48:43;46.05;;;41.38;;
68168;SDS011;54981;50.206;15.978;2022-12-29T19:51:44;48.42;;;43.63;;
68168;SDS011;54981;50.206;15.978;2022-12-29T19:54:44;53.03;;;47.72;;
68168;SDS011;54981;50.206;15.978;2022-12-29T19:57:45;47.90;;;43.00;;
68168;SDS011;54981;50.206;15.978;2022-12-29T20:00:45;47.13;;;42.40;;
68168;SDS011;54981;50.206;15.978;2022-12-29T20:03:46;47.33;;;42.63;;
68168;SDS011;54981;50.206;15.978;2022-12-29T20:06:47;45.83;;;41.25;;
68168;SDS011;54981;50.206;15.978;2022-12-29T20:09:48;46.63;;;42.05;;
68168;SDS011;54981;50.206;15.978;2022-12-29T20:12:48;47.33;;;42.58;;
68168;SDS011;54981;50.206;15.978;2022-12-29T20:15:48;49.35;;;44.55;;